createdAt,value
2022-09-05T00:02:09.421Z,8.90
2022-09-05T00:05:13.223Z,5.80
2022-09-05T00:11:42.025Z,8.30
2022-09-05T00:13:45.408Z,7.80
2022-09-05T00:16:44.089Z,7.20
2022-09-05T00:24:22.839Z,5.50
2022-09-05T00:24:30.904Z,9.10
2022-09-05T00:25:42.993Z,7.10
2022-09-05T00:28:25.787Z,7.00
2022-09-05T00:31:51.819Z,7.20
2022-09-05T00:34:08.367Z,9.70
2022-09-05T00:36:56.515Z,6.20
2022-09-05T00:39:40.397Z,8.50
2022-09-05T00:42:17.326Z,5.80
2022-09-05T00:44:57.973Z,6.80
2022-09-05T00:48:09.929Z,7.20
2022-09-05T00:50:58.988Z,6.60
2022-09-05T00:53:57.277Z,8.50
2022-09-05T00:56:58.190Z,5.60
2022-09-05T00:59:58.581Z,7.20
2022-09-05T01:02:58.217Z,5.10
2022-09-05T01:05:47.491Z,8.00
2022-09-05T01:09:07.383Z,4.90
2022-09-05T01:11:50.416Z,5.10
2022-09-05T01:14:21.026Z,5.30
2022-09-05T01:16:54.457Z,5.10
2022-09-05T01:20:04.917Z,4.60
2022-09-05T01:22:55.744Z,4.70
2022-09-05T01:25:32.175Z,4.20
2022-09-05T01:29:16.292Z,8.20
2022-09-05T01:31:53.406Z,8.40
2022-09-05T01:34:48.402Z,9.30
2022-09-05T01:37:34.379Z,6.30
2022-09-05T01:40:35.156Z,5.20
2022-09-05T01:43:17.434Z,5.90
2022-09-05T01:45:58.781Z,6.10
2022-09-05T01:48:54.638Z,4.10
2022-09-05T01:51:49.286Z,7.10
2022-09-05T01:54:28.452Z,8.10
2022-09-05T01:57:36.668Z,4.70
2022-09-05T02:00:39.460Z,4.40
2022-09-05T02:03:21.501Z,6.00
2022-09-05T02:05:54.959Z,4.90
2022-09-05T02:08:47.944Z,5.90
2022-09-05T02:11:35.746Z,4.20
2022-09-05T02:14:33.950Z,7.30
2022-09-05T02:17:27.290Z,5.40
2022-09-05T02:20:23.818Z,7.00
2022-09-05T02:23:26.043Z,6.80
2022-09-05T02:26:29.300Z,7.50
2022-09-05T02:29:29.938Z,4.00
2022-09-05T02:32:21.140Z,6.80
2022-09-05T02:35:07.986Z,4.30
2022-09-05T02:40:59.910Z,4.30
2022-09-05T02:45:06.741Z,5.50
2022-09-05T02:45:10.694Z,9.20
2022-09-05T02:46:51.163Z,7.60
2022-09-05T02:50:55.781Z,7.20
2022-09-05T02:57:33.012Z,8.80
2022-09-05T02:57:36.306Z,3.50
2022-09-05T02:58:25.642Z,4.40
2022-09-05T03:01:18.366Z,6.70
2022-09-05T03:03:56.102Z,6.80
2022-09-05T03:06:36.122Z,5.10
2022-09-05T03:09:26.926Z,4.10
2022-09-05T03:12:28.977Z,5.90
2022-09-05T03:15:24.709Z,8.50
2022-09-05T03:18:33.754Z,5.40
2022-09-05T03:21:29.865Z,6.90
2022-09-05T03:24:09.715Z,4.90
2022-09-05T03:26:54.170Z,8.90
2022-09-05T03:29:59.311Z,5.80
2022-09-05T03:32:49.161Z,6.30
2022-09-05T03:35:47.812Z,7.00
2022-09-05T03:38:51.797Z,6.60
2022-09-05T03:41:40.345Z,6.30
2022-09-05T03:44:28.592Z,8.10
2022-09-05T03:46:55.736Z,7.70
2022-09-05T03:55:05.916Z,13.50
2022-09-05T03:57:17.659Z,6.40
2022-09-05T03:57:17.972Z,7.20
2022-09-05T03:59:52.956Z,10.30
2022-09-05T04:08:06.892Z,8.60
2022-09-05T04:08:15.900Z,7.50
2022-09-05T04:08:38.523Z,5.70
2022-09-05T04:11:19.502Z,11.00
2022-09-05T04:13:54.197Z,6.00
2022-09-05T04:16:44.789Z,7.30
2022-09-05T04:19:29.845Z,6.20
2022-09-05T04:22:36.150Z,10.50
2022-09-05T04:25:25.383Z,7.00
2022-09-05T04:28:10.660Z,8.20
2022-09-05T04:30:52.394Z,5.90
2022-09-05T04:34:15.509Z,7.20
2022-09-05T04:36:45.730Z,8.50
2022-09-05T04:39:19.165Z,8.10
2022-09-05T04:41:51.090Z,8.60
2022-09-05T04:44:31.445Z,4.60
2022-09-05T04:47:03.209Z,7.10
2022-09-05T04:49:34.151Z,5.70
2022-09-05T04:52:31.482Z,9.20
2022-09-05T04:55:15.755Z,14.60
2022-09-05T04:57:47.011Z,10.60
2022-09-05T05:06:05.347Z,12.10
2022-09-05T05:06:09.091Z,8.60
2022-09-05T05:06:12.393Z,10.20
2022-09-05T05:09:04.947Z,10.10
2022-09-05T05:17:25.373Z,6.20
2022-09-05T05:17:56.693Z,7.40
2022-09-05T05:18:15.468Z,10.90
2022-09-05T05:20:45.227Z,6.60
2022-09-05T05:23:17.429Z,6.70
2022-09-05T05:25:52.203Z,5.40
2022-09-05T05:28:25.418Z,6.10
2022-09-05T05:31:01.116Z,5.90
2022-09-05T05:33:34.051Z,7.20
2022-09-05T05:36:02.030Z,5.50
2022-09-05T05:38:37.745Z,6.60
2022-09-05T05:41:18.837Z,7.50
2022-09-05T05:43:46.747Z,8.00
2022-09-05T05:46:17.135Z,9.60
2022-09-05T05:48:48.444Z,8.10
2022-09-05T05:52:06.611Z,6.90
2022-09-05T05:54:42.368Z,8.20
2022-09-05T05:57:21.593Z,7.50
2022-09-05T06:00:00.623Z,7.50
2022-09-05T06:03:24.642Z,7.00
2022-09-05T06:05:50.896Z,6.50
2022-09-05T06:10:03.732Z,5.40
2022-09-05T06:14:59.038Z,7.50
2022-09-05T06:15:08.533Z,8.30
2022-09-05T06:17:49.691Z,6.20
2022-09-05T06:22:11.590Z,10.80
2022-09-05T06:23:39.382Z,33.80
2022-09-05T06:26:29.083Z,11.50
2022-09-05T06:29:34.534Z,10.50
2022-09-05T06:32:18.312Z,8.70
2022-09-05T06:35:16.726Z,7.20
2022-09-05T06:37:46.959Z,6.60
2022-09-05T06:40:40.318Z,9.00
2022-09-05T06:46:08.863Z,9.30
2022-09-05T06:48:46.116Z,6.50
2022-09-05T06:51:44.182Z,10.60
2022-09-05T06:54:35.709Z,5.60
2022-09-05T06:57:19.286Z,6.50
2022-09-05T07:00:22.268Z,10.60
2022-09-05T07:03:14.697Z,8.80
2022-09-05T07:05:55.769Z,9.40
2022-09-05T07:08:53.713Z,8.20
2022-09-05T07:11:22.117Z,8.00
2022-09-05T07:14:04.701Z,10.80
2022-09-05T07:16:56.283Z,9.70
2022-09-05T07:19:48.726Z,10.60
2022-09-05T07:22:47.186Z,10.30
2022-09-05T07:25:18.289Z,10.30
2022-09-05T07:28:29.136Z,10.00
2022-09-05T07:31:30.310Z,7.90
2022-09-05T07:34:43.489Z,7.30
2022-09-05T07:38:04.658Z,8.80
2022-09-05T07:43:41.190Z,10.80
2022-09-05T07:56:06.798Z,8.70
2022-09-05T07:57:02.368Z,8.90
2022-09-05T07:57:10.215Z,10.40
2022-09-05T07:58:52.579Z,7.90
2022-09-05T08:01:19.896Z,10.50
2022-09-05T08:03:48.719Z,12.10
2022-09-05T08:06:55.801Z,8.90
2022-09-05T08:10:06.925Z,9.00
2022-09-05T08:12:16.023Z,9.80
2022-09-05T08:15:14.013Z,10.20
2022-09-05T08:17:56.604Z,8.10
2022-09-05T08:21:04.708Z,12.60
2022-09-05T08:23:55.524Z,9.00
2022-09-05T08:26:28.932Z,9.80
2022-09-05T08:29:09.522Z,19.50
2022-09-05T08:32:13.486Z,23.50
2022-09-05T08:34:47.836Z,34.00
2022-09-05T08:37:28.162Z,8.20
2022-09-05T08:40:10.553Z,8.50
2022-09-05T08:44:19.573Z,8.50
2022-09-05T08:46:42.370Z,8.30
2022-09-05T08:49:32.144Z,12.70
2022-09-05T08:52:26.933Z,9.70
2022-09-05T08:55:07.703Z,8.60
2022-09-05T08:57:41.216Z,8.70
2022-09-05T09:00:20.301Z,9.00
2022-09-05T09:03:05.108Z,10.40
2022-09-05T09:06:14.861Z,16.70
2022-09-05T09:08:50.899Z,9.40
2022-09-05T09:11:30.335Z,7.80
2022-09-05T09:14:31.162Z,6.10
2022-09-05T09:17:39.414Z,7.60
2022-09-05T09:27:19.085Z,9.00
2022-09-05T09:32:49.728Z,12.00
2022-09-05T09:35:25.990Z,8.60
2022-09-05T09:38:00.001Z,8.50
2022-09-05T09:41:00.699Z,7.60
2022-09-05T09:44:24.112Z,7.80
2022-09-05T09:46:51.305Z,8.10
2022-09-05T09:53:15.566Z,7.20
2022-09-05T09:59:19.443Z,8.20
2022-09-05T10:02:24.032Z,6.70
2022-09-05T10:10:34.509Z,10.30
2022-09-05T10:10:47.498Z,8.90
2022-09-05T10:12:17.733Z,8.40
2022-09-05T10:14:51.323Z,9.00
2022-09-05T10:17:57.119Z,8.40
2022-09-05T10:20:45.032Z,9.90
2022-09-05T10:23:37.442Z,8.30
2022-09-05T10:26:54.400Z,8.60
2022-09-05T10:30:06.514Z,7.90
2022-09-05T10:35:09.738Z,8.50
2022-09-05T10:35:43.966Z,6.20
2022-09-05T10:38:26.722Z,8.20
2022-09-05T10:41:21.821Z,7.40
2022-09-05T10:43:59.664Z,7.60
2022-09-05T10:46:51.940Z,8.60
2022-09-05T10:49:23.514Z,9.30
2022-09-05T10:52:05.412Z,8.20
2022-09-05T10:54:49.005Z,9.30
2022-09-05T10:57:37.522Z,6.50
2022-09-05T11:02:24.440Z,9.00
2022-09-05T11:03:23.011Z,8.00
2022-09-05T11:06:09.097Z,8.30
2022-09-05T11:08:48.642Z,7.10
2022-09-05T11:11:33.990Z,6.90
2022-09-05T11:14:04.742Z,6.60
2022-09-05T11:16:50.824Z,9.10
2022-09-05T11:19:34.377Z,10.50
2022-09-05T11:22:23.173Z,7.10
2022-09-05T11:24:56.937Z,6.20
2022-09-05T11:27:35.043Z,6.50
2022-09-05T11:38:34.142Z,4.50
2022-09-05T11:39:57.724Z,7.00
2022-09-05T11:40:05.510Z,5.60
2022-09-05T11:42:02.707Z,6.90
2022-09-05T11:45:02.041Z,6.90
2022-09-05T11:47:48.287Z,5.50
2022-09-05T11:50:56.832Z,5.00
2022-09-05T11:53:41.778Z,6.70
2022-09-05T11:56:11.897Z,6.00
2022-09-05T11:59:14.387Z,4.90
2022-09-05T12:01:47.293Z,5.30
2022-09-05T12:05:48.666Z,6.00
2022-09-05T12:07:51.899Z,4.90
2022-09-05T12:10:43.851Z,7.30
2022-09-05T12:13:37.402Z,7.40
2022-09-05T12:16:38.314Z,5.20
2022-09-05T12:19:30.225Z,4.80
2022-09-05T12:22:18.732Z,5.20
2022-09-05T12:25:24.952Z,4.90
2022-09-05T12:29:09.716Z,3.90
2022-09-05T12:31:07.082Z,5.40
2022-09-05T12:36:04.818Z,5.70
2022-09-05T12:40:15.670Z,5.40
2022-09-05T12:40:58.397Z,5.40
2022-09-05T12:43:39.295Z,6.10
2022-09-05T12:46:04.039Z,5.90
2022-09-05T12:49:22.995Z,5.00
2022-09-05T12:52:09.175Z,7.20
2022-09-05T12:54:41.265Z,5.00
2022-09-05T12:58:35.984Z,6.30
2022-09-05T13:03:02.982Z,5.40
2022-09-05T13:03:14.117Z,5.80
2022-09-05T13:06:02.150Z,6.60
2022-09-05T13:08:59.443Z,5.70
2022-09-05T13:14:53.868Z,6.10
2022-09-05T13:14:57.459Z,10.30
2022-09-05T13:17:26.335Z,6.60
2022-09-05T13:19:56.301Z,8.10
2022-09-05T13:22:23.930Z,9.00
2022-09-05T13:25:05.440Z,7.20
2022-09-05T13:27:34.865Z,5.40
2022-09-05T13:37:44.788Z,9.80
2022-09-05T13:38:08.369Z,5.20
2022-09-05T13:38:30.785Z,8.90
2022-09-05T13:38:47.530Z,4.70
2022-09-05T13:41:27.015Z,5.00
2022-09-05T13:44:00.215Z,7.50
2022-09-05T13:47:29.483Z,5.90
2022-09-05T13:50:20.436Z,6.70
2022-09-05T13:52:56.188Z,5.10
2022-09-05T13:55:28.870Z,5.70
2022-09-05T13:58:07.455Z,6.90
2022-09-05T14:00:38.934Z,9.40
2022-09-05T14:03:44.318Z,10.40
2022-09-05T14:06:45.217Z,9.00
2022-09-05T14:09:39.352Z,5.70
2022-09-05T14:12:30.037Z,6.40
2022-09-05T14:15:15.952Z,6.90
2022-09-05T14:18:20.631Z,4.70
2022-09-05T14:21:19.182Z,7.90
2022-09-05T14:23:55.926Z,7.40
2022-09-05T14:26:30.430Z,9.20
2022-09-05T14:29:17.421Z,4.80
2022-09-05T14:37:41.814Z,6.50
2022-09-05T14:37:45.050Z,10.90
2022-09-05T14:38:13.655Z,7.10
2022-09-05T14:41:15.175Z,5.90
2022-09-05T14:43:56.902Z,7.10
2022-09-05T14:46:33.764Z,12.00
2022-09-05T14:49:10.920Z,9.30
2022-09-05T14:51:39.137Z,7.00
2022-09-05T15:02:39.608Z,10.10
2022-09-05T15:02:57.898Z,9.10
2022-09-05T15:03:02.441Z,9.00
2022-09-05T15:05:45.830Z,8.80
2022-09-05T15:10:18.998Z,4.90
2022-09-05T15:12:20.230Z,5.70
2022-09-05T15:14:04.015Z,5.30
2022-09-05T15:16:33.086Z,5.60
2022-09-05T15:19:00.455Z,9.30
2022-09-05T15:21:38.485Z,6.50
2022-09-05T15:24:21.219Z,5.10
2022-09-05T15:26:59.627Z,5.50
2022-09-05T15:29:28.926Z,7.90
2022-09-05T15:32:26.856Z,7.50
2022-09-05T15:34:55.933Z,6.60
2022-09-05T15:37:37.277Z,5.40
2022-09-05T15:40:04.699Z,7.10
2022-09-05T15:42:51.435Z,5.90
2022-09-05T15:45:21.623Z,6.50
2022-09-05T15:48:14.811Z,7.00
2022-09-05T15:50:55.748Z,9.10
2022-09-05T15:53:34.624Z,5.70
2022-09-05T15:56:25.241Z,7.00
2022-09-05T15:58:55.806Z,6.70
2022-09-05T16:01:58.472Z,5.90
2022-09-05T16:10:18.152Z,8.60
2022-09-05T16:10:39.982Z,32.90
2022-09-05T16:10:47.281Z,9.10
2022-09-05T16:13:17.640Z,10.90
2022-09-05T16:23:19.951Z,9.80
2022-09-05T16:23:28.094Z,7.80
2022-09-05T16:23:33.823Z,9.40
2022-09-05T16:24:24.957Z,7.80
2022-09-05T16:27:08.391Z,10.20
2022-09-05T16:29:40.166Z,8.60
2022-09-05T16:32:12.803Z,11.40
2022-09-05T16:34:57.912Z,9.90
2022-09-05T16:37:53.198Z,11.20
2022-09-05T16:40:31.922Z,11.10
2022-09-05T16:43:19.528Z,7.00
2022-09-05T16:45:58.009Z,7.80
2022-09-05T16:48:34.545Z,13.10
2022-09-05T16:51:35.536Z,17.80
2022-09-05T16:54:12.600Z,16.80
2022-09-05T16:56:44.313Z,11.50
2022-09-05T16:59:18.125Z,12.50
2022-09-05T17:02:07.064Z,16.10
2022-09-05T17:05:07.171Z,16.00
2022-09-05T17:07:42.537Z,25.80
2022-09-05T17:10:20.373Z,17.40
2022-09-05T17:12:57.144Z,21.60
2022-09-05T17:15:51.849Z,18.40
2022-09-05T17:18:25.087Z,18.40
2022-09-05T17:20:55.504Z,22.00
2022-09-05T17:29:23.873Z,22.10
2022-09-05T17:29:30.887Z,24.50
2022-09-05T17:32:54.246Z,12.30
2022-09-05T17:35:42.863Z,10.70
2022-09-05T17:38:48.218Z,11.50
2022-09-05T17:41:27.111Z,15.60
2022-09-05T17:44:00.296Z,12.00
2022-09-05T17:46:32.258Z,15.00
2022-09-05T17:49:19.747Z,19.90
2022-09-05T17:51:53.635Z,16.90
2022-09-05T17:54:31.120Z,15.00
2022-09-05T17:57:29.977Z,21.60
2022-09-05T18:00:31.793Z,23.80
2022-09-05T18:03:01.147Z,30.90
2022-09-05T18:06:04.362Z,30.40
2022-09-05T18:11:44.961Z,35.60
2022-09-05T18:14:24.870Z,30.70
2022-09-05T18:17:36.709Z,28.20
2022-09-05T18:19:41.966Z,24.00
2022-09-05T18:22:25.407Z,20.70
2022-09-05T18:25:27.750Z,27.30
2022-09-05T18:28:16.310Z,24.60
2022-09-05T18:30:46.686Z,25.30
2022-09-05T18:33:54.534Z,24.90
2022-09-05T18:36:19.236Z,20.10
2022-09-05T18:39:29.446Z,20.80
2022-09-05T18:42:16.136Z,21.90
2022-09-05T18:44:59.356Z,23.20
2022-09-05T18:47:51.239Z,20.80
2022-09-05T18:50:28.457Z,22.00
2022-09-05T18:53:09.046Z,21.00
2022-09-05T18:56:13.362Z,18.50
2022-09-05T18:58:54.297Z,25.10
2022-09-05T19:01:39.285Z,23.50
2022-09-05T19:04:32.970Z,20.80
2022-09-05T19:07:18.929Z,24.10
2022-09-05T19:10:35.188Z,17.80
2022-09-05T19:13:01.102Z,19.70
2022-09-05T19:15:35.252Z,16.70
2022-09-05T19:18:27.365Z,21.10
2022-09-05T19:21:04.764Z,48.50
2022-09-05T19:24:02.739Z,21.00
2022-09-05T19:26:34.673Z,107.00
2022-09-05T19:36:52.443Z,32.30
2022-09-05T19:37:06.830Z,25.00
2022-09-05T19:37:14.785Z,19.70
2022-09-05T19:37:48.460Z,22.90
2022-09-05T19:47:28.785Z,24.60
2022-09-05T19:47:37.697Z,26.80
2022-09-05T19:47:38.169Z,23.20
2022-09-05T19:49:12.398Z,23.90
2022-09-05T19:51:43.771Z,24.30
2022-09-05T19:54:33.117Z,16.80
2022-09-05T19:57:05.182Z,18.90
2022-09-05T19:59:42.366Z,15.40
2022-09-05T20:02:31.580Z,17.50
2022-09-05T20:05:03.600Z,17.10
2022-09-05T20:07:31.870Z,23.00
2022-09-05T20:10:01.991Z,15.60
2022-09-05T20:12:34.282Z,17.70
2022-09-05T20:15:35.757Z,11.70
2022-09-05T20:18:21.237Z,13.80
2022-09-05T20:20:55.556Z,12.90
2022-09-05T20:23:24.911Z,15.40
2022-09-05T20:25:52.237Z,15.90
2022-09-05T20:28:36.926Z,14.40
2022-09-05T20:31:14.419Z,13.60
2022-09-05T20:33:51.604Z,12.60
2022-09-05T20:43:07.643Z,10.20
2022-09-05T20:43:22.839Z,13.00
2022-09-05T20:43:32.631Z,11.50
2022-09-05T20:44:50.658Z,10.40
2022-09-05T20:54:06.026Z,12.90
2022-09-05T20:54:18.418Z,13.70
2022-09-05T20:54:18.685Z,12.40
2022-09-05T20:56:31.210Z,15.50
2022-09-05T20:59:01.326Z,13.30
2022-09-05T21:01:32.684Z,13.80
2022-09-05T21:04:04.848Z,12.70
2022-09-05T21:06:41.584Z,12.60
2022-09-05T21:09:25.399Z,13.00
2022-09-05T21:11:56.603Z,14.90
2022-09-05T21:14:24.657Z,15.10
2022-09-05T21:16:59.922Z,12.40
2022-09-05T21:19:54.004Z,12.60
2022-09-05T21:22:21.418Z,12.50
2022-09-05T21:24:49.132Z,11.20
2022-09-05T21:27:23.502Z,14.00
2022-09-05T21:29:58.893Z,11.10
2022-09-05T21:32:33.474Z,12.20
2022-09-05T21:35:09.243Z,13.90
2022-09-05T21:37:53.468Z,12.20
2022-09-05T21:40:21.418Z,11.20
2022-09-05T21:47:33.845Z,12.50
2022-09-05T21:47:37.457Z,14.50
2022-09-05T21:48:24.746Z,11.50
2022-09-05T21:50:54.106Z,17.00
2022-09-05T21:55:10.710Z,11.90
2022-09-05T21:59:16.566Z,10.90
2022-09-05T22:02:07.686Z,13.60
2022-09-05T22:04:41.270Z,14.60
2022-09-05T22:07:14.522Z,10.00
2022-09-05T22:09:41.700Z,12.70
2022-09-05T22:12:30.142Z,13.30
2022-09-05T22:15:26.685Z,13.30
2022-09-05T22:17:47.522Z,13.30
2022-09-05T22:20:15.831Z,11.90
2022-09-05T22:22:43.440Z,14.90
2022-09-05T22:25:34.334Z,15.50
2022-09-05T22:28:13.163Z,17.20
2022-09-05T22:30:40.316Z,11.90
2022-09-05T22:33:08.204Z,12.50
2022-09-05T22:35:36.247Z,13.60
2022-09-05T22:38:10.503Z,13.60
2022-09-05T22:40:40.793Z,12.00
2022-09-05T22:43:09.884Z,9.80
2022-09-05T22:45:38.258Z,13.60
2022-09-05T22:48:13.204Z,10.80
2022-09-05T22:50:41.097Z,16.80
2022-09-05T22:53:09.987Z,16.50
2022-09-05T22:55:39.171Z,19.30
2022-09-05T22:58:07.321Z,17.80
2022-09-05T23:00:34.981Z,14.90
2022-09-05T23:03:03.766Z,15.40
2022-09-05T23:05:31.936Z,16.50
2022-09-05T23:07:59.879Z,11.60
2022-09-05T23:10:27.669Z,11.80
2022-09-05T23:12:55.127Z,13.30
2022-09-05T23:15:22.305Z,12.60
2022-09-05T23:17:56.379Z,12.80
2022-09-05T23:20:24.116Z,10.40
2022-09-05T23:22:51.308Z,9.80
2022-09-05T23:25:18.864Z,8.50
2022-09-05T23:27:45.971Z,11.00
2022-09-05T23:30:13.313Z,9.60
2022-09-05T23:32:45.172Z,10.50
2022-09-05T23:35:55.638Z,13.40
2022-09-05T23:38:45.932Z,10.20
2022-09-05T23:41:25.223Z,7.50
2022-09-05T23:43:53.524Z,8.40
2022-09-05T23:46:32.536Z,10.10
